sensor_id;sensor_type;location;lat;lon;timestamp;temperature;humidity
68274;SHT30;55104;47.356;19.448;2023-01-08T00:02:42;5.80;95.97
68274;SHT30;55104;47.356;19.448;2023-01-08T00:05:44;5.84;95.87
68274;SHT30;55104;47.356;19.448;2023-01-08T00:08:47;5.83;95.86
68274;SHT30;55104;47.356;19.448;2023-01-08T00:11:49;5.84;95.75
68274;SHT30;55104;47.356;19.448;2023-01-08T00:14:51;5.83;95.83
68274;SHT30;55104;47.356;19.448;2023-01-08T00:17:53;5.84;95.60
68274;SHT30;55104;47.356;19.448;2023-01-08T00:20:55;5.87;95.62
68274;SHT30;55104;47.356;19.448;2023-01-08T00:23:57;5.87;95.65
68274;SHT30;55104;47.356;19.448;2023-01-08T00:26:59;5.87;95.69
68274;SHT30;55104;47.356;19.448;2023-01-08T00:30:01;5.93;95.61
68274;SHT30;55104;47.356;19.448;2023-01-08T00:33:03;5.86;95.61
68274;SHT30;55104;47.356;19.448;2023-01-08T00:36:07;5.93;95.51
68274;SHT30;55104;47.356;19.448;2023-01-08T00:39:09;5.91;95.39
68274;SHT30;55104;47.356;19.448;2023-01-08T00:42:12;5.90;95.40
68274;SHT30;55104;47.356;19.448;2023-01-08T00:45:14;5.88;95.52
68274;SHT30;55104;47.356;19.448;2023-01-08T00:48:16;5.88;95.51
68274;SHT30;55104;47.356;19.448;2023-01-08T00:51:18;5.88;95.42
68274;SHT30;55104;47.356;19.448;2023-01-08T00:54:20;5.88;95.38
68274;SHT30;55104;47.356;19.448;2023-01-08T00:57:22;5.93;95.29
68274;SHT30;55104;47.356;19.448;2023-01-08T01:00:29;5.93;95.10
68274;SHT30;55104;47.356;19.448;2023-01-08T01:03:31;5.87;95.20
68274;SHT30;55104;47.356;19.448;2023-01-08T01:06:33;5.86;95.28
68274;SHT30;55104;47.356;19.448;2023-01-08T01:09:35;5.84;95.22
68274;SHT30;55104;47.356;19.448;2023-01-08T01:12:37;5.84;95.35
68274;SHT30;55104;47.356;19.448;2023-01-08T01:15:39;5.88;95.16
68274;SHT30;55104;47.356;19.448;2023-01-08T01:18:42;5.86;95.22
68274;SHT30;55104;47.356;19.448;2023-01-08T01:21:44;5.84;95.21
68274;SHT30;55104;47.356;19.448;2023-01-08T01:24:46;5.81;95.32
68274;SHT30;55104;47.356;19.448;2023-01-08T01:27:48;5.86;95.37
68274;SHT30;55104;47.356;19.448;2023-01-08T01:30:56;5.81;95.37
68274;SHT30;55104;47.356;19.448;2023-01-08T01:33:58;5.81;95.48
68274;SHT30;55104;47.356;19.448;2023-01-08T01:37:00;5.75;95.63
68274;SHT30;55104;47.356;19.448;2023-01-08T01:40:03;5.78;95.67
68274;SHT30;55104;47.356;19.448;2023-01-08T01:43:11;5.80;95.66
68274;SHT30;55104;47.356;19.448;2023-01-08T01:46:38;5.73;95.81
68274;SHT30;55104;47.356;19.448;2023-01-08T01:49:42;5.86;95.52
68274;SHT30;55104;47.356;19.448;2023-01-08T01:52:57;5.78;95.58
68274;SHT30;55104;47.356;19.448;2023-01-08T01:56:00;5.81;95.67
68274;SHT30;55104;47.356;19.448;2023-01-08T01:59:04;5.75;95.72
68274;SHT30;55104;47.356;19.448;2023-01-08T02:02:06;5.73;95.88
68274;SHT30;55104;47.356;19.448;2023-01-08T02:05:09;5.74;95.87
68274;SHT30;55104;47.356;19.448;2023-01-08T02:08:12;5.73;95.82
68274;SHT30;55104;47.356;19.448;2023-01-08T02:11:27;5.75;95.81
68274;SHT30;55104;47.356;19.448;2023-01-08T02:21:13;5.67;96.04
68274;SHT30;55104;47.356;19.448;2023-01-08T02:27:44;5.67;96.12
68274;SHT30;55104;47.356;19.448;2023-01-08T02:30:48;5.66;95.98
68274;SHT30;55104;47.356;19.448;2023-01-08T02:33:50;5.64;96.10
68274;SHT30;55104;47.356;19.448;2023-01-08T02:36:54;5.54;96.34
68274;SHT30;55104;47.356;19.448;2023-01-08T02:43:38;5.53;96.48
68274;SHT30;55104;47.356;19.448;2023-01-08T02:46:41;5.52;96.36
68274;SHT30;55104;47.356;19.448;2023-01-08T02:49:46;5.52;96.26
68274;SHT30;55104;47.356;19.448;2023-01-08T02:53:18;5.49;96.18
68274;SHT30;55104;47.356;19.448;2023-01-08T02:56:24;5.53;96.11
68274;SHT30;55104;47.356;19.448;2023-01-08T02:59:30;5.47;96.05
68274;SHT30;55104;47.356;19.448;2023-01-08T03:02:34;5.49;96.01
68274;SHT30;55104;47.356;19.448;2023-01-08T03:05:39;5.49;95.93
68274;SHT30;55104;47.356;19.448;2023-01-08T03:08:44;5.46;95.84
68274;SHT30;55104;47.356;19.448;2023-01-08T03:12:01;5.44;95.73
68274;SHT30;55104;47.356;19.448;2023-01-08T03:15:07;5.40;95.85
68274;SHT30;55104;47.356;19.448;2023-01-08T03:18:13;5.39;95.89
68274;SHT30;55104;47.356;19.448;2023-01-08T03:21:18;5.32;96.15
68274;SHT30;55104;47.356;19.448;2023-01-08T03:24:30;5.31;96.19
68274;SHT30;55104;47.356;19.448;2023-01-08T03:27:38;5.31;96.13
68274;SHT30;55104;47.356;19.448;2023-01-08T03:30:41;5.35;96.10
68274;SHT30;55104;47.356;19.448;2023-01-08T03:33:45;5.28;96.17
68274;SHT30;55104;47.356;19.448;2023-01-08T03:36:49;5.28;96.33
68274;SHT30;55104;47.356;19.448;2023-01-08T03:43:05;5.28;96.28
68274;SHT30;55104;47.356;19.448;2023-01-08T03:46:13;5.33;96.21
68274;SHT30;55104;47.356;19.448;2023-01-08T03:49:17;5.32;96.18
68274;SHT30;55104;47.356;19.448;2023-01-08T03:52:26;5.32;96.05
68274;SHT30;55104;47.356;19.448;2023-01-08T03:55:28;5.39;96.03
68274;SHT30;55104;47.356;19.448;2023-01-08T03:58:30;5.33;95.79
68274;SHT30;55104;47.356;19.448;2023-01-08T04:01:32;5.28;95.90
68274;SHT30;55104;47.356;19.448;2023-01-08T04:04:34;5.29;95.84
68274;SHT30;55104;47.356;19.448;2023-01-08T04:07:37;5.28;95.88
68274;SHT30;55104;47.356;19.448;2023-01-08T04:10:39;5.28;95.84
68274;SHT30;55104;47.356;19.448;2023-01-08T04:13:41;5.26;96.02
68274;SHT30;55104;47.356;19.448;2023-01-08T04:16:43;5.23;96.01
68274;SHT30;55104;47.356;19.448;2023-01-08T04:19:45;5.16;96.24
68274;SHT30;55104;47.356;19.448;2023-01-08T04:22:48;5.12;96.36
68274;SHT30;55104;47.356;19.448;2023-01-08T04:25:49;5.18;96.44
68274;SHT30;55104;47.356;19.448;2023-01-08T04:28:51;5.14;96.38
68274;SHT30;55104;47.356;19.448;2023-01-08T04:31:53;5.14;96.44
68274;SHT30;55104;47.356;19.448;2023-01-08T04:34:55;5.18;96.37
68274;SHT30;55104;47.356;19.448;2023-01-08T04:37:57;5.15;96.23
68274;SHT30;55104;47.356;19.448;2023-01-08T04:41:01;5.15;96.30
68274;SHT30;55104;47.356;19.448;2023-01-08T04:44:03;5.11;96.31
68274;SHT30;55104;47.356;19.448;2023-01-08T04:47:05;5.04;96.57
68274;SHT30;55104;47.356;19.448;2023-01-08T04:50:07;5.08;96.50
68274;SHT30;55104;47.356;19.448;2023-01-08T04:53:09;5.08;96.51
68274;SHT30;55104;47.356;19.448;2023-01-08T04:56:12;5.04;96.51
68274;SHT30;55104;47.356;19.448;2023-01-08T04:59:14;5.01;96.62
68274;SHT30;55104;47.356;19.448;2023-01-08T05:02:16;5.04;96.48
68274;SHT30;55104;47.356;19.448;2023-01-08T05:05:18;4.98;96.50
68274;SHT30;55104;47.356;19.448;2023-01-08T05:08:20;5.01;96.52
68274;SHT30;55104;47.356;19.448;2023-01-08T05:11:23;5.05;96.38
68274;SHT30;55104;47.356;19.448;2023-01-08T05:14:25;5.04;96.53
68274;SHT30;55104;47.356;19.448;2023-01-08T05:17:27;4.99;96.43
68274;SHT30;55104;47.356;19.448;2023-01-08T05:20:31;5.01;96.53
68274;SHT30;55104;47.356;19.448;2023-01-08T05:23:33;4.97;96.55
68274;SHT30;55104;47.356;19.448;2023-01-08T05:26:35;5.01;96.74
68274;SHT30;55104;47.356;19.448;2023-01-08T05:29:37;5.01;96.74
68274;SHT30;55104;47.356;19.448;2023-01-08T05:32:39;4.92;97.03
68274;SHT30;55104;47.356;19.448;2023-01-08T05:35:41;4.95;96.90
68274;SHT30;55104;47.356;19.448;2023-01-08T05:38:43;4.97;96.98
68274;SHT30;55104;47.356;19.448;2023-01-08T05:41:45;5.05;96.75
68274;SHT30;55104;47.356;19.448;2023-01-08T05:44:47;5.01;96.73
68274;SHT30;55104;47.356;19.448;2023-01-08T05:47:49;5.02;96.58
68274;SHT30;55104;47.356;19.448;2023-01-08T05:50:52;4.98;96.69
68274;SHT30;55104;47.356;19.448;2023-01-08T05:53:54;5.07;96.68
68274;SHT30;55104;47.356;19.448;2023-01-08T05:56:56;5.01;96.62
68274;SHT30;55104;47.356;19.448;2023-01-08T05:59:58;5.01;96.48
68274;SHT30;55104;47.356;19.448;2023-01-08T06:03:00;4.98;96.61
68274;SHT30;55104;47.356;19.448;2023-01-08T06:06:03;4.98;96.62
68274;SHT30;55104;47.356;19.448;2023-01-08T06:09:06;5.01;96.52
68274;SHT30;55104;47.356;19.448;2023-01-08T06:12:08;4.98;96.54
68274;SHT30;55104;47.356;19.448;2023-01-08T06:15:11;4.94;96.48
68274;SHT30;55104;47.356;19.448;2023-01-08T06:18:16;4.95;96.67
68274;SHT30;55104;47.356;19.448;2023-01-08T06:21:18;4.98;96.54
68274;SHT30;55104;47.356;19.448;2023-01-08T06:24:20;4.92;96.52
68274;SHT30;55104;47.356;19.448;2023-01-08T06:27:22;4.97;96.55
68274;SHT30;55104;47.356;19.448;2023-01-08T06:30:24;4.91;96.32
68274;SHT30;55104;47.356;19.448;2023-01-08T06:33:26;4.94;96.48
68274;SHT30;55104;47.356;19.448;2023-01-08T06:36:29;4.89;96.50
68274;SHT30;55104;47.356;19.448;2023-01-08T06:39:31;4.98;96.43
68274;SHT30;55104;47.356;19.448;2023-01-08T06:42:33;4.94;96.48
68274;SHT30;55104;47.356;19.448;2023-01-08T06:45:35;5.01;96.45
68274;SHT30;55104;47.356;19.448;2023-01-08T06:48:37;5.01;96.34
68274;SHT30;55104;47.356;19.448;2023-01-08T06:51:39;4.98;96.37
68274;SHT30;55104;47.356;19.448;2023-01-08T06:54:41;5.02;96.42
68274;SHT30;55104;47.356;19.448;2023-01-08T06:57:43;5.05;96.20
68274;SHT30;55104;47.356;19.448;2023-01-08T07:00:45;5.02;96.23
68274;SHT30;55104;47.356;19.448;2023-01-08T07:03:47;5.09;95.90
68274;SHT30;55104;47.356;19.448;2023-01-08T07:06:49;5.04;95.87
68274;SHT30;55104;47.356;19.448;2023-01-08T07:09:52;5.04;95.97
68274;SHT30;55104;47.356;19.448;2023-01-08T07:12:54;5.05;95.89
68274;SHT30;55104;47.356;19.448;2023-01-08T07:15:55;5.08;95.75
68274;SHT30;55104;47.356;19.448;2023-01-08T07:18:58;5.07;95.70
68274;SHT30;55104;47.356;19.448;2023-01-08T07:22:00;5.07;95.72
68274;SHT30;55104;47.356;19.448;2023-01-08T07:25:02;5.05;95.75
68274;SHT30;55104;47.356;19.448;2023-01-08T07:28:10;5.08;95.72
68274;SHT30;55104;47.356;19.448;2023-01-08T07:31:12;5.02;95.55
68274;SHT30;55104;47.356;19.448;2023-01-08T07:34:14;5.02;95.71
68274;SHT30;55104;47.356;19.448;2023-01-08T07:37:16;4.99;95.77
68274;SHT30;55104;47.356;19.448;2023-01-08T07:40:18;5.05;95.71
68274;SHT30;55104;47.356;19.448;2023-01-08T07:43:20;5.14;95.45
68274;SHT30;55104;47.356;19.448;2023-01-08T07:46:22;5.05;95.48
68274;SHT30;55104;47.356;19.448;2023-01-08T07:49:25;5.09;95.56
68274;SHT30;55104;47.356;19.448;2023-01-08T07:52:28;5.11;95.56
68274;SHT30;55104;47.356;19.448;2023-01-08T07:55:30;5.14;95.39
68274;SHT30;55104;47.356;19.448;2023-01-08T07:58:33;5.19;95.31
68274;SHT30;55104;47.356;19.448;2023-01-08T08:01:35;5.21;95.12
68274;SHT30;55104;47.356;19.448;2023-01-08T08:04:37;5.21;95.16
68274;SHT30;55104;47.356;19.448;2023-01-08T08:07:39;5.25;94.78
68274;SHT30;55104;47.356;19.448;2023-01-08T08:10:42;5.19;94.72
68274;SHT30;55104;47.356;19.448;2023-01-08T08:13:44;5.16;94.69
68274;SHT30;55104;47.356;19.448;2023-01-08T08:16:48;5.23;94.73
68274;SHT30;55104;47.356;19.448;2023-01-08T08:19:51;5.22;94.59
68274;SHT30;55104;47.356;19.448;2023-01-08T08:26:08;5.36;94.12
68274;SHT30;55104;47.356;19.448;2023-01-08T08:29:11;5.39;93.77
68274;SHT30;55104;47.356;19.448;2023-01-08T08:32:13;5.46;93.83
68274;SHT30;55104;47.356;19.448;2023-01-08T08:35:15;5.44;93.53
68274;SHT30;55104;47.356;19.448;2023-01-08T08:38:17;5.49;93.72
68274;SHT30;55104;47.356;19.448;2023-01-08T08:41:19;5.52;93.50
68274;SHT30;55104;47.356;19.448;2023-01-08T08:44:22;5.53;93.64
68274;SHT30;55104;47.356;19.448;2023-01-08T08:47:24;5.42;93.47
68274;SHT30;55104;47.356;19.448;2023-01-08T08:50:26;5.60;93.49
68274;SHT30;55104;47.356;19.448;2023-01-08T08:53:28;5.56;93.45
68274;SHT30;55104;47.356;19.448;2023-01-08T08:56:30;5.52;93.22
68274;SHT30;55104;47.356;19.448;2023-01-08T08:59:32;5.60;93.61
68274;SHT30;55104;47.356;19.448;2023-01-08T09:02:34;5.69;93.35
68274;SHT30;55104;47.356;19.448;2023-01-08T09:05:36;5.75;93.11
68274;SHT30;55104;47.356;19.448;2023-01-08T09:08:39;5.75;93.12
68274;SHT30;55104;47.356;19.448;2023-01-08T09:11:41;5.71;93.28
68274;SHT30;55104;47.356;19.448;2023-01-08T09:14:43;5.81;92.93
68274;SHT30;55104;47.356;19.448;2023-01-08T09:17:54;5.91;92.61
68274;SHT30;55104;47.356;19.448;2023-01-08T09:20:57;6.02;92.09
68274;SHT30;55104;47.356;19.448;2023-01-08T09:23:59;6.08;91.40
68274;SHT30;55104;47.356;19.448;2023-01-08T09:27:01;6.14;91.57
68274;SHT30;55104;47.356;19.448;2023-01-08T09:30:04;6.15;91.51
68274;SHT30;55104;47.356;19.448;2023-01-08T09:33:06;6.26;91.34
68274;SHT30;55104;47.356;19.448;2023-01-08T09:36:11;6.36;91.38
68274;SHT30;55104;47.356;19.448;2023-01-08T09:39:13;6.46;90.56
68274;SHT30;55104;47.356;19.448;2023-01-08T09:42:20;6.67;90.72
68274;SHT30;55104;47.356;19.448;2023-01-08T09:45:29;6.70;90.33
68274;SHT30;55104;47.356;19.448;2023-01-08T09:48:35;6.74;90.20
68274;SHT30;55104;47.356;19.448;2023-01-08T09:51:38;6.83;89.97
68274;SHT30;55104;47.356;19.448;2023-01-08T09:54:40;6.95;89.86
68274;SHT30;55104;47.356;19.448;2023-01-08T09:57:43;6.92;89.68
68274;SHT30;55104;47.356;19.448;2023-01-08T10:00:45;7.04;89.39
68274;SHT30;55104;47.356;19.448;2023-01-08T10:03:58;7.23;89.54
68274;SHT30;55104;47.356;19.448;2023-01-08T10:07:14;7.46;88.98
68274;SHT30;55104;47.356;19.448;2023-01-08T10:10:28;7.63;88.66
68274;SHT30;55104;47.356;19.448;2023-01-08T10:13:33;7.67;88.04
68274;SHT30;55104;47.356;19.448;2023-01-08T10:16:36;7.66;88.22
68274;SHT30;55104;47.356;19.448;2023-01-08T10:19:39;7.85;88.10
68274;SHT30;55104;47.356;19.448;2023-01-08T10:22:42;7.95;87.51
68274;SHT30;55104;47.356;19.448;2023-01-08T10:25:58;8.12;87.15
68274;SHT30;55104;47.356;19.448;2023-01-08T10:29:15;8.42;87.15
68274;SHT30;55104;47.356;19.448;2023-01-08T10:32:23;8.57;86.62
68274;SHT30;55104;47.356;19.448;2023-01-08T10:35:34;8.78;86.51
68274;SHT30;55104;47.356;19.448;2023-01-08T10:38:48;8.75;85.51
68274;SHT30;55104;47.356;19.448;2023-01-08T10:41:53;8.87;85.84
68274;SHT30;55104;47.356;19.448;2023-01-08T10:44:58;8.97;84.95
68274;SHT30;55104;47.356;19.448;2023-01-08T10:48:04;8.94;85.29
68274;SHT30;55104;47.356;19.448;2023-01-08T10:51:16;9.15;85.61
68274;SHT30;55104;47.356;19.448;2023-01-08T10:54:32;9.33;84.79
68274;SHT30;55104;47.356;19.448;2023-01-08T10:57:34;9.61;84.16
68274;SHT30;55104;47.356;19.448;2023-01-08T11:00:37;9.69;82.85
68274;SHT30;55104;47.356;19.448;2023-01-08T11:03:39;9.71;82.56
68274;SHT30;55104;47.356;19.448;2023-01-08T11:06:42;9.93;82.96
68274;SHT30;55104;47.356;19.448;2023-01-08T11:09:48;10.06;81.46
68274;SHT30;55104;47.356;19.448;2023-01-08T11:13:05;10.23;81.16
68274;SHT30;55104;47.356;19.448;2023-01-08T11:16:09;10.26;80.37
68274;SHT30;55104;47.356;19.448;2023-01-08T11:19:17;10.55;80.93
68274;SHT30;55104;47.356;19.448;2023-01-08T11:22:22;10.77;79.50
68274;SHT30;55104;47.356;19.448;2023-01-08T11:25:26;10.94;79.32
68274;SHT30;55104;47.356;19.448;2023-01-08T11:28:57;10.93;78.72
68274;SHT30;55104;47.356;19.448;2023-01-08T11:35:32;10.63;79.30
68274;SHT30;55104;47.356;19.448;2023-01-08T11:38:35;10.49;79.68
68274;SHT30;55104;47.356;19.448;2023-01-08T11:48:25;10.49;79.96
68274;SHT30;55104;47.356;19.448;2023-01-08T11:51:38;10.48;80.30
68274;SHT30;55104;47.356;19.448;2023-01-08T12:01:02;10.57;80.16
68274;SHT30;55104;47.356;19.448;2023-01-08T12:04:15;10.66;79.92
68274;SHT30;55104;47.356;19.448;2023-01-08T12:07:24;10.70;80.26
68274;SHT30;55104;47.356;19.448;2023-01-08T12:10:51;10.76;80.58
68274;SHT30;55104;47.356;19.448;2023-01-08T12:14:29;10.87;79.92
68274;SHT30;55104;47.356;19.448;2023-01-08T12:32:06;11.16;78.35
68274;SHT30;55104;47.356;19.448;2023-01-08T12:35:21;11.16;78.66
68274;SHT30;55104;47.356;19.448;2023-01-08T12:38:36;11.15;78.37
68274;SHT30;55104;47.356;19.448;2023-01-08T12:41:42;11.07;79.03
68274;SHT30;55104;47.356;19.448;2023-01-08T12:44:46;11.00;78.81
68274;SHT30;55104;47.356;19.448;2023-01-08T12:47:54;10.95;79.08
68274;SHT30;55104;47.356;19.448;2023-01-08T12:51:07;10.95;78.88
68274;SHT30;55104;47.356;19.448;2023-01-08T13:04:11;10.74;79.58
68274;SHT30;55104;47.356;19.448;2023-01-08T13:07:29;10.71;79.50
68274;SHT30;55104;47.356;19.448;2023-01-08T13:10:48;10.66;79.50
68274;SHT30;55104;47.356;19.448;2023-01-08T13:14:19;10.66;79.64
68274;SHT30;55104;47.356;19.448;2023-01-08T13:17:20;10.59;79.92
68274;SHT30;55104;47.356;19.448;2023-01-08T13:20:26;10.61;80.09
68274;SHT30;55104;47.356;19.448;2023-01-08T13:23:31;10.55;79.98
68274;SHT30;55104;47.356;19.448;2023-01-08T13:26:35;10.45;80.66
68274;SHT30;55104;47.356;19.448;2023-01-08T13:29:40;10.39;81.41
68274;SHT30;55104;47.356;19.448;2023-01-08T13:32:46;10.43;81.37
68274;SHT30;55104;47.356;19.448;2023-01-08T13:35:49;10.35;81.72
68274;SHT30;55104;47.356;19.448;2023-01-08T13:42:25;10.25;82.03
68274;SHT30;55104;47.356;19.448;2023-01-08T13:45:29;10.19;82.30
68274;SHT30;55104;47.356;19.448;2023-01-08T13:54:39;10.01;82.90
68274;SHT30;55104;47.356;19.448;2023-01-08T13:57:56;10.01;83.00
68274;SHT30;55104;47.356;19.448;2023-01-08T14:01:00;9.94;83.35
68274;SHT30;55104;47.356;19.448;2023-01-08T14:04:03;9.91;83.41
68274;SHT30;55104;47.356;19.448;2023-01-08T14:07:12;9.90;83.51
68274;SHT30;55104;47.356;19.448;2023-01-08T14:10:16;9.88;83.68
68274;SHT30;55104;47.356;19.448;2023-01-08T14:13:23;9.90;83.74
68274;SHT30;55104;47.356;19.448;2023-01-08T14:16:27;9.87;84.40
68274;SHT30;55104;47.356;19.448;2023-01-08T14:19:30;9.87;84.39
68274;SHT30;55104;47.356;19.448;2023-01-08T14:22:32;9.87;84.45
68274;SHT30;55104;47.356;19.448;2023-01-08T14:25:35;9.87;84.30
68274;SHT30;55104;47.356;19.448;2023-01-08T14:28:38;9.85;83.99
68274;SHT30;55104;47.356;19.448;2023-01-08T14:31:48;9.88;84.02
68274;SHT30;55104;47.356;19.448;2023-01-08T14:34:51;9.90;84.01
68274;SHT30;55104;47.356;19.448;2023-01-08T14:37:54;9.90;83.98
68274;SHT30;55104;47.356;19.448;2023-01-08T14:41:01;9.87;84.07
68274;SHT30;55104;47.356;19.448;2023-01-08T14:44:04;9.78;84.46
68274;SHT30;55104;47.356;19.448;2023-01-08T14:47:15;9.84;84.13
68274;SHT30;55104;47.356;19.448;2023-01-08T14:50:26;9.80;84.47
68274;SHT30;55104;47.356;19.448;2023-01-08T14:53:41;9.77;84.64
68274;SHT30;55104;47.356;19.448;2023-01-08T14:56:46;9.80;84.61
68274;SHT30;55104;47.356;19.448;2023-01-08T14:59:54;9.87;83.94
68274;SHT30;55104;47.356;19.448;2023-01-08T15:02:57;9.84;84.29
68274;SHT30;55104;47.356;19.448;2023-01-08T15:05:59;9.81;84.26
68274;SHT30;55104;47.356;19.448;2023-01-08T15:09:19;9.87;84.02
68274;SHT30;55104;47.356;19.448;2023-01-08T15:12:23;9.85;84.03
68274;SHT30;55104;47.356;19.448;2023-01-08T15:15:26;9.85;83.97
68274;SHT30;55104;47.356;19.448;2023-01-08T15:18:28;9.90;84.07
68274;SHT30;55104;47.356;19.448;2023-01-08T15:21:31;9.78;84.27
68274;SHT30;55104;47.356;19.448;2023-01-08T15:24:36;9.76;84.38
68274;SHT30;55104;47.356;19.448;2023-01-08T15:27:50;9.80;84.05
68274;SHT30;55104;47.356;19.448;2023-01-08T15:30:55;9.81;83.96
68274;SHT30;55104;47.356;19.448;2023-01-08T15:33:58;9.71;84.33
68274;SHT30;55104;47.356;19.448;2023-01-08T15:37:01;9.78;84.12
68274;SHT30;55104;47.356;19.448;2023-01-08T15:40:03;9.71;84.38
68274;SHT30;55104;47.356;19.448;2023-01-08T15:43:10;9.78;84.35
68274;SHT30;55104;47.356;19.448;2023-01-08T15:46:13;9.77;84.35
68274;SHT30;55104;47.356;19.448;2023-01-08T15:49:17;9.74;84.53
68274;SHT30;55104;47.356;19.448;2023-01-08T15:52:24;9.76;84.47
68274;SHT30;55104;47.356;19.448;2023-01-08T15:55:30;9.76;84.40
68274;SHT30;55104;47.356;19.448;2023-01-08T15:58:33;9.71;84.64
68274;SHT30;55104;47.356;19.448;2023-01-08T16:01:35;9.67;85.06
68274;SHT30;55104;47.356;19.448;2023-01-08T16:04:37;9.70;84.85
68274;SHT30;55104;47.356;19.448;2023-01-08T16:07:40;9.73;84.79
68274;SHT30;55104;47.356;19.448;2023-01-08T16:10:42;9.66;85.05
68274;SHT30;55104;47.356;19.448;2023-01-08T16:13:45;9.70;84.96
68274;SHT30;55104;47.356;19.448;2023-01-08T16:16:47;9.64;85.48
68274;SHT30;55104;47.356;19.448;2023-01-08T16:19:50;9.61;85.61
68274;SHT30;55104;47.356;19.448;2023-01-08T16:22:52;9.60;85.54
68274;SHT30;55104;47.356;19.448;2023-01-08T16:25:55;9.56;85.89
68274;SHT30;55104;47.356;19.448;2023-01-08T16:28:57;9.60;85.61
68274;SHT30;55104;47.356;19.448;2023-01-08T16:32:00;9.57;85.79
68274;SHT30;55104;47.356;19.448;2023-01-08T16:35:03;9.56;85.92
68274;SHT30;55104;47.356;19.448;2023-01-08T16:38:05;9.61;85.86
68274;SHT30;55104;47.356;19.448;2023-01-08T16:41:08;9.54;86.08
68274;SHT30;55104;47.356;19.448;2023-01-08T16:44:22;9.57;85.94
68274;SHT30;55104;47.356;19.448;2023-01-08T16:47:28;9.56;86.04
68274;SHT30;55104;47.356;19.448;2023-01-08T16:50:31;9.54;85.97
68274;SHT30;55104;47.356;19.448;2023-01-08T16:53:33;9.53;86.12
68274;SHT30;55104;47.356;19.448;2023-01-08T16:56:36;9.56;85.92
68274;SHT30;55104;47.356;19.448;2023-01-08T16:59:38;9.58;85.97
68274;SHT30;55104;47.356;19.448;2023-01-08T17:02:41;9.66;85.54
68274;SHT30;55104;47.356;19.448;2023-01-08T17:05:43;9.70;84.96
68274;SHT30;55104;47.356;19.448;2023-01-08T17:08:45;9.70;84.93
68274;SHT30;55104;47.356;19.448;2023-01-08T17:11:47;9.76;84.67
68274;SHT30;55104;47.356;19.448;2023-01-08T17:14:49;9.84;84.11
68274;SHT30;55104;47.356;19.448;2023-01-08T17:17:52;9.87;83.85
68274;SHT30;55104;47.356;19.448;2023-01-08T17:20:54;9.84;84.09
68274;SHT30;55104;47.356;19.448;2023-01-08T17:23:56;9.93;83.62
68274;SHT30;55104;47.356;19.448;2023-01-08T17:26:58;9.87;83.82
68274;SHT30;55104;47.356;19.448;2023-01-08T17:30:01;9.90;83.64
68274;SHT30;55104;47.356;19.448;2023-01-08T17:33:04;9.93;83.78
68274;SHT30;55104;47.356;19.448;2023-01-08T17:36:14;9.91;83.48
68274;SHT30;55104;47.356;19.448;2023-01-08T17:39:17;9.95;83.07
68274;SHT30;55104;47.356;19.448;2023-01-08T17:42:19;9.95;83.00
68274;SHT30;55104;47.356;19.448;2023-01-08T17:45:28;9.94;83.11
68274;SHT30;55104;47.356;19.448;2023-01-08T17:48:31;9.94;82.85
68274;SHT30;55104;47.356;19.448;2023-01-08T17:51:34;9.93;82.99
68274;SHT30;55104;47.356;19.448;2023-01-08T17:54:36;10.01;82.35
68274;SHT30;55104;47.356;19.448;2023-01-08T17:57:38;10.01;82.42
68274;SHT30;55104;47.356;19.448;2023-01-08T18:00:40;9.98;82.12
68274;SHT30;55104;47.356;19.448;2023-01-08T18:03:43;10.01;81.96
68274;SHT30;55104;47.356;19.448;2023-01-08T18:06:45;10.08;81.22
68274;SHT30;55104;47.356;19.448;2023-01-08T18:09:47;10.11;81.13
68274;SHT30;55104;47.356;19.448;2023-01-08T18:12:50;10.13;81.05
68274;SHT30;55104;47.356;19.448;2023-01-08T18:15:53;10.12;80.80
68274;SHT30;55104;47.356;19.448;2023-01-08T18:18:56;10.11;81.02
68274;SHT30;55104;47.356;19.448;2023-01-08T18:21:59;10.11;80.63
68274;SHT30;55104;47.356;19.448;2023-01-08T18:25:01;10.15;80.40
68274;SHT30;55104;47.356;19.448;2023-01-08T18:28:05;10.18;80.21
68274;SHT30;55104;47.356;19.448;2023-01-08T18:31:09;10.16;80.03
68274;SHT30;55104;47.356;19.448;2023-01-08T18:34:12;10.16;79.98
68274;SHT30;55104;47.356;19.448;2023-01-08T18:37:16;10.15;80.15
68274;SHT30;55104;47.356;19.448;2023-01-08T18:40:18;10.16;80.10
68274;SHT30;55104;47.356;19.448;2023-01-08T18:43:20;10.21;79.91
68274;SHT30;55104;47.356;19.448;2023-01-08T18:46:23;10.18;79.60
68274;SHT30;55104;47.356;19.448;2023-01-08T18:49:26;10.16;79.50
68274;SHT30;55104;47.356;19.448;2023-01-08T18:52:29;10.16;79.50
68274;SHT30;55104;47.356;19.448;2023-01-08T18:55:31;10.16;79.49
68274;SHT30;55104;47.356;19.448;2023-01-08T18:58:34;10.19;79.54
68274;SHT30;55104;47.356;19.448;2023-01-08T19:01:36;10.16;79.54
68274;SHT30;55104;47.356;19.448;2023-01-08T19:04:39;10.12;79.69
68274;SHT30;55104;47.356;19.448;2023-01-08T19:07:41;10.08;79.87
68274;SHT30;55104;47.356;19.448;2023-01-08T19:10:43;10.04;79.90
68274;SHT30;55104;47.356;19.448;2023-01-08T19:13:46;10.09;79.98
68274;SHT30;55104;47.356;19.448;2023-01-08T19:16:48;10.08;79.78
68274;SHT30;55104;47.356;19.448;2023-01-08T19:19:52;10.08;79.51
68274;SHT30;55104;47.356;19.448;2023-01-08T19:22:54;10.06;79.28
68274;SHT30;55104;47.356;19.448;2023-01-08T19:25:57;10.04;79.25
68274;SHT30;55104;47.356;19.448;2023-01-08T19:28:59;10.09;78.81
68274;SHT30;55104;47.356;19.448;2023-01-08T19:32:01;10.16;78.45
68274;SHT30;55104;47.356;19.448;2023-01-08T19:35:05;10.29;77.61
68274;SHT30;55104;47.356;19.448;2023-01-08T19:38:07;10.31;77.60
68274;SHT30;55104;47.356;19.448;2023-01-08T19:41:10;10.35;77.18
68274;SHT30;55104;47.356;19.448;2023-01-08T19:44:32;10.38;77.27
68274;SHT30;55104;47.356;19.448;2023-01-08T19:47:34;10.40;77.05
68274;SHT30;55104;47.356;19.448;2023-01-08T19:50:37;10.49;76.42
68274;SHT30;55104;47.356;19.448;2023-01-08T19:53:39;10.46;76.62
68274;SHT30;55104;47.356;19.448;2023-01-08T19:56:42;10.45;76.55
68274;SHT30;55104;47.356;19.448;2023-01-08T19:59:44;10.50;76.20
68274;SHT30;55104;47.356;19.448;2023-01-08T20:02:48;10.53;76.71
68274;SHT30;55104;47.356;19.448;2023-01-08T20:05:50;10.50;76.55
68274;SHT30;55104;47.356;19.448;2023-01-08T20:08:56;10.53;76.40
68274;SHT30;55104;47.356;19.448;2023-01-08T20:12:00;10.50;76.51
68274;SHT30;55104;47.356;19.448;2023-01-08T20:15:03;10.57;76.50
68274;SHT30;55104;47.356;19.448;2023-01-08T20:18:06;10.63;75.90
68274;SHT30;55104;47.356;19.448;2023-01-08T20:21:12;10.63;75.97
68274;SHT30;55104;47.356;19.448;2023-01-08T20:24:16;10.66;75.99
68274;SHT30;55104;47.356;19.448;2023-01-08T20:27:18;10.61;76.19
68274;SHT30;55104;47.356;19.448;2023-01-08T20:30:20;10.61;76.24
68274;SHT30;55104;47.356;19.448;2023-01-08T20:33:22;10.57;76.24